createdAt,value
2023-04-15T00:00:05.180Z,97264.56
2023-04-15T00:01:06.709Z,97287.91
2023-04-15T00:02:18.531Z,97278.16
2023-04-15T00:03:20.613Z,97280.94
2023-04-15T00:04:22.339Z,97277.91
2023-04-15T00:05:23.986Z,97281.69
2023-04-15T00:06:26.319Z,97272.47
2023-04-15T00:07:27.840Z,97275.72
2023-04-15T00:08:30.471Z,97274.34
2023-04-15T00:09:32.031Z,97246.38
2023-04-15T00:10:33.558Z,97271.38
2023-04-15T00:11:35.616Z,97273.53
2023-04-15T00:12:37.181Z,97272.41
2023-04-15T00:13:39.882Z,97267.00
2023-04-15T00:14:41.463Z,97268.63
2023-04-15T00:15:43.371Z,97272.41
2023-04-15T00:16:45.060Z,97278.38
2023-04-15T00:17:47.084Z,97270.50
2023-04-15T00:18:48.964Z,97281.06
2023-04-15T00:19:50.588Z,97278.94
2023-04-15T00:20:52.585Z,97283.25
2023-04-15T00:21:54.227Z,97273.25
2023-04-15T00:22:55.860Z,97279.22
2023-04-15T00:23:57.760Z,97271.38
2023-04-15T00:24:59.307Z,97267.88
2023-04-15T00:26:00.839Z,97271.38
2023-04-15T00:27:02.448Z,97256.72
2023-04-15T00:28:04.195Z,97262.72
2023-04-15T00:29:06.270Z,97268.59
2023-04-15T00:30:08.219Z,97269.31
2023-04-15T00:31:09.889Z,97262.81
2023-04-15T00:32:11.455Z,97269.03
2023-04-15T00:33:13.760Z,97268.44
2023-04-15T00:34:15.350Z,97269.75
2023-04-15T00:35:17.399Z,97260.31
2023-04-15T00:36:19.481Z,97266.72
2023-04-15T00:37:21.260Z,97266.06
2023-04-15T00:38:23.203Z,97265.41
2023-04-15T00:39:24.814Z,97264.66
2023-04-15T00:40:26.415Z,97256.34
2023-04-15T00:41:28.091Z,97259.84
2023-04-15T00:42:29.744Z,97258.19
2023-04-15T00:43:31.263Z,97251.34
2023-04-15T00:44:33.445Z,97243.97
2023-04-15T00:45:35.013Z,97251.41
2023-04-15T00:46:37.735Z,97250.41
2023-04-15T00:47:39.554Z,97256.63
2023-04-15T00:48:41.521Z,97254.44
2023-04-15T00:49:43.402Z,97256.31
2023-04-15T00:50:45.160Z,97254.47
2023-04-15T00:51:47.085Z,97260.19
2023-04-15T00:52:48.732Z,97256.75
2023-04-15T00:53:50.379Z,97256.31
2023-04-15T00:54:52.895Z,97256.06
2023-04-15T00:55:54.422Z,97254.25
2023-04-15T00:56:56.609Z,97253.94
2023-04-15T00:57:58.194Z,97240.19
2023-04-15T00:59:00.448Z,97255.34
2023-04-15T01:00:02.831Z,97252.31
2023-04-15T01:01:04.622Z,97253.44
2023-04-15T01:02:06.978Z,97244.56
2023-04-15T01:03:09.005Z,97246.81
2023-04-15T01:04:11.896Z,97241.16
2023-04-15T01:05:13.707Z,97240.91
2023-04-15T01:06:15.219Z,97236.06
2023-04-15T01:07:17.376Z,97227.97
2023-04-15T01:08:18.908Z,97220.69
2023-04-15T01:09:21.098Z,97228.78
2023-04-15T01:10:22.639Z,97237.47
2023-04-15T01:11:24.429Z,97244.75
2023-04-15T01:12:26.983Z,97244.19
2023-04-15T01:13:28.665Z,97242.28
2023-04-15T01:14:30.259Z,97237.09
2023-04-15T01:15:32.128Z,97246.56
2023-04-15T01:16:33.697Z,97238.78
2023-04-15T01:17:35.363Z,97243.94
2023-04-15T01:18:37.838Z,97239.66
2023-04-15T01:19:40.104Z,97233.94
2023-04-15T01:20:41.721Z,97238.91
2023-04-15T01:21:43.251Z,97229.09
2023-04-15T01:22:45.348Z,97234.56
2023-04-15T01:23:47.316Z,97233.50
2023-04-15T01:25:08.624Z,97225.09
2023-04-15T01:26:10.221Z,97230.59
2023-04-15T01:27:11.748Z,97230.28
2023-04-15T01:28:13.245Z,97227.84
2023-04-15T01:29:15.506Z,97228.09
2023-04-15T01:30:17.683Z,97227.28
2023-04-15T01:31:19.342Z,97229.19
2023-04-15T01:32:20.898Z,97226.47
2023-04-15T01:33:22.383Z,97232.44
2023-04-15T01:34:24.010Z,97224.31
2023-04-15T01:35:26.114Z,97226.47
2023-04-15T01:36:27.984Z,97221.63
2023-04-15T01:37:29.544Z,97220.81
2023-04-15T01:38:31.402Z,97209.69
2023-04-15T01:39:33.623Z,97219.75
2023-04-15T01:40:35.742Z,97218.94
2023-04-15T01:41:37.255Z,97222.19
2023-04-15T01:42:38.805Z,97216.78
2023-04-15T01:43:40.360Z,97221.13
2023-04-15T01:44:41.906Z,97221.31
2023-04-15T01:45:43.765Z,97219.38
2023-04-15T01:46:45.374Z,97224.72
2023-04-15T01:47:46.953Z,97223.13
2023-04-15T01:48:48.523Z,97212.88
2023-04-15T01:49:50.046Z,97226.41
2023-04-15T01:50:52.903Z,97217.50
2023-04-15T01:51:54.453Z,97219.97
2023-04-15T01:52:55.982Z,97218.88
2023-04-15T01:53:57.497Z,97214.03
2023-04-15T01:54:58.989Z,97210.56
2023-04-15T01:56:00.910Z,97215.47
2023-04-15T01:57:02.465Z,97197.81
2023-04-15T01:58:04.113Z,97213.56
2023-04-15T01:59:06.281Z,97205.97
2023-04-15T02:00:08.271Z,97208.69
2023-04-15T02:01:10.809Z,97215.16
2023-04-15T02:02:12.661Z,97203.22
2023-04-15T02:03:14.290Z,97218.72
2023-04-15T02:04:18.726Z,97214.09
2023-04-15T02:05:20.246Z,97220.06
2023-04-15T02:06:22.078Z,97207.63
2023-04-15T02:07:24.312Z,97200.31
2023-04-15T02:08:25.872Z,97206.00
2023-04-15T02:09:27.359Z,97205.22
2023-04-15T02:10:28.858Z,97206.53
2023-04-15T02:11:30.389Z,97203.28
2023-04-15T02:12:31.942Z,97205.72
2023-04-15T02:13:33.461Z,97203.28
2023-04-15T02:14:34.952Z,97196.19
2023-04-15T02:15:36.645Z,97198.09
2023-04-15T02:16:38.212Z,97198.38
2023-04-15T02:17:39.831Z,97190.91
2023-04-15T02:18:41.706Z,97203.63
2023-04-15T02:19:43.206Z,97202.53
2023-04-15T02:20:45.489Z,97188.41
2023-04-15T02:21:46.986Z,97202.53
2023-04-15T02:22:48.704Z,97203.53
2023-04-15T02:23:52.882Z,97210.53
2023-04-15T02:24:55.467Z,97210.00
2023-04-15T02:25:57.330Z,97212.97
2023-04-15T02:26:58.886Z,97190.53
2023-04-15T02:28:00.394Z,97213.84
2023-04-15T02:29:02.149Z,97216.59
2023-04-15T02:30:04.115Z,97211.50
2023-04-15T02:31:10.201Z,97209.88
2023-04-15T02:32:13.144Z,97210.19
2023-04-15T02:33:14.582Z,97210.94
2023-04-15T02:34:15.964Z,97213.22
2023-04-15T02:35:19.842Z,97211.41
2023-04-15T02:36:21.759Z,97206.94
2023-04-15T02:37:23.384Z,97213.03
2023-04-15T02:38:25.145Z,97205.09
2023-04-15T02:39:27.372Z,97209.66
2023-04-15T02:40:29.012Z,97200.97
2023-04-15T02:41:30.654Z,97216.69
2023-04-15T02:42:32.601Z,97210.69
2023-04-15T02:43:34.157Z,97216.31
2023-04-15T02:44:36.566Z,97212.84
2023-04-15T02:45:38.221Z,97206.06
2023-04-15T02:46:41.300Z,97205.81
2023-04-15T02:47:43.396Z,97200.34
2023-04-15T02:48:44.975Z,97216.09
2023-04-15T02:49:46.676Z,97215.78
2023-04-15T02:50:48.753Z,97206.84
2023-04-15T02:51:51.284Z,97191.00
2023-04-15T02:52:52.826Z,97203.53
2023-04-15T02:53:54.433Z,97202.34
2023-04-15T02:55:00.549Z,97212.38
2023-04-15T02:56:02.439Z,97210.50
2023-04-15T02:57:06.761Z,97210.53
2023-04-15T02:58:08.408Z,97215.66
2023-04-15T02:59:09.981Z,97212.16
2023-04-15T03:00:12.211Z,97212.78
2023-04-15T03:01:14.164Z,97212.28
2023-04-15T03:02:15.936Z,97208.75
2023-04-15T03:03:17.678Z,97203.16
2023-04-15T03:04:19.303Z,97213.72
2023-04-15T03:05:20.861Z,97215.09
2023-04-15T03:06:22.702Z,97215.66
2023-04-15T03:07:24.290Z,97205.88
2023-04-15T03:08:26.154Z,97207.81
2023-04-15T03:09:27.765Z,97199.44
2023-04-15T03:10:29.324Z,97210.81
2023-04-15T03:11:31.594Z,97198.88
2023-04-15T03:12:33.074Z,97210.81
2023-04-15T03:13:34.604Z,97200.78
2023-04-15T03:14:36.273Z,97214.34
2023-04-15T03:15:37.807Z,97208.16
2023-04-15T03:16:39.357Z,97208.69
2023-04-15T03:17:41.083Z,97207.63
2023-04-15T03:18:42.646Z,97206.53
2023-04-15T03:19:44.299Z,97211.94
2023-04-15T03:20:45.916Z,97203.28
2023-04-15T03:21:47.460Z,97208.69
2023-04-15T03:22:48.943Z,97211.94
2023-04-15T03:23:50.631Z,97199.19
2023-04-15T03:24:52.122Z,97204.59
2023-04-15T03:25:56.038Z,97194.03
2023-04-15T03:26:57.871Z,97210.00
2023-04-15T03:28:00.136Z,97210.56
2023-04-15T03:29:01.851Z,97210.31
2023-04-15T03:30:03.714Z,97211.94
2023-04-15T03:31:05.661Z,97204.91
2023-04-15T03:32:07.244Z,97209.19
2023-04-15T03:33:08.905Z,97212.97
2023-04-15T03:34:10.588Z,97211.34
2023-04-15T03:35:12.440Z,97189.09
2023-04-15T03:36:14.025Z,97209.19
2023-04-15T03:37:15.583Z,97204.59
2023-04-15T03:38:17.263Z,97204.88
2023-04-15T03:39:18.776Z,97209.19
2023-04-15T03:40:21.525Z,97209.19
2023-04-15T03:41:23.038Z,97187.56
2023-04-15T03:42:24.547Z,97202.72
2023-04-15T03:43:26.463Z,97201.66
2023-04-15T03:44:28.006Z,97178.03
2023-04-15T03:45:29.545Z,97197.06
2023-04-15T03:46:31.259Z,97196.25
2023-04-15T03:47:32.850Z,97193.53
2023-04-15T03:48:34.374Z,97177.28
2023-04-15T03:49:36.693Z,97201.13
2023-04-15T03:50:38.205Z,97203.56
2023-04-15T03:51:39.719Z,97194.63
2023-04-15T03:52:41.250Z,97190.31
2023-04-15T03:53:42.737Z,97198.38
2023-04-15T03:54:44.233Z,97204.41
2023-04-15T03:55:45.801Z,97195.47
2023-04-15T03:56:47.339Z,97180.53
2023-04-15T03:57:48.966Z,97202.75
2023-04-15T03:58:50.709Z,97192.78
2023-04-15T03:59:52.252Z,97199.50
2023-04-15T04:00:54.859Z,97193.28
2023-04-15T04:01:56.559Z,97187.63
2023-04-15T04:02:58.668Z,97196.81
2023-04-15T04:04:00.426Z,97195.47
2023-04-15T04:05:02.157Z,97192.47
2023-04-15T04:06:03.718Z,97178.09
2023-04-15T04:07:05.222Z,97207.59
2023-04-15T04:08:06.735Z,97208.97
2023-04-15T04:09:08.265Z,97203.56
2023-04-15T04:10:10.025Z,97209.50
2023-04-15T04:11:11.546Z,97200.06
2023-04-15T04:12:13.110Z,97208.44
2023-04-15T04:13:14.592Z,97204.41
2023-04-15T04:14:16.095Z,97204.41
2023-04-15T04:15:17.611Z,97202.19
2023-04-15T04:16:19.294Z,97204.91
2023-04-15T04:17:21.041Z,97199.50
2023-04-15T04:18:22.753Z,97206.81
2023-04-15T04:19:24.333Z,97208.19
2023-04-15T04:20:25.863Z,97216.28
2023-04-15T04:21:27.540Z,97216.28
2023-04-15T04:22:29.138Z,97203.84
2023-04-15T04:23:30.699Z,97208.16
2023-04-15T04:24:32.374Z,97211.69
2023-04-15T04:25:33.896Z,97211.41
2023-04-15T04:26:35.461Z,97211.41
2023-04-15T04:27:37.093Z,97217.91
2023-04-15T04:28:40.610Z,97204.91
2023-04-15T04:29:42.157Z,97208.69
2023-04-15T04:30:43.679Z,97212.50
2023-04-15T04:31:45.281Z,97197.34
2023-04-15T04:32:46.905Z,97210.88
2023-04-15T04:33:48.484Z,97209.78
2023-04-15T04:34:50.056Z,97206.22
2023-04-15T04:35:51.607Z,97220.03
2023-04-15T04:36:53.112Z,97218.41
2023-04-15T04:37:54.687Z,97216.28
2023-04-15T04:38:56.244Z,97213.84
2023-04-15T04:39:57.762Z,97202.97
2023-04-15T04:40:59.320Z,97220.88
2023-04-15T04:42:01.421Z,97224.94
2023-04-15T04:43:02.943Z,97222.75
2023-04-15T04:44:04.554Z,97227.91
2023-04-15T04:45:06.569Z,97214.63
2023-04-15T04:46:08.116Z,97203.78
2023-04-15T04:47:09.758Z,97222.75
2023-04-15T04:48:11.615Z,97204.88
2023-04-15T04:49:13.163Z,97225.47
2023-04-15T04:50:14.726Z,97223.56
2023-04-15T04:51:16.388Z,97219.50
2023-04-15T04:52:17.930Z,97216.53
2023-04-15T04:53:19.496Z,97211.41
2023-04-15T04:54:21.357Z,97221.69
2023-04-15T04:55:22.934Z,97219.78
2023-04-15T04:56:24.638Z,97210.88
2023-04-15T04:57:26.566Z,97213.03
2023-04-15T04:58:28.136Z,97213.84
2023-04-15T04:59:29.741Z,97206.53
2023-04-15T05:00:31.569Z,97219.50
2023-04-15T05:01:33.288Z,97216.78
2023-04-15T05:02:35.209Z,97193.78
2023-04-15T05:03:37.026Z,97213.59
2023-04-15T05:04:38.676Z,97217.91
2023-04-15T05:05:41.555Z,97198.19
2023-04-15T05:06:43.080Z,97212.50
2023-04-15T05:07:44.677Z,97217.41
2023-04-15T05:08:47.134Z,97205.25
2023-04-15T05:09:48.685Z,97214.44
2023-04-15T05:10:50.497Z,97210.94
2023-04-15T05:11:52.089Z,97212.00
2023-04-15T05:12:53.687Z,97213.94
2023-04-15T05:13:55.538Z,97212.28
2023-04-15T05:14:57.173Z,97224.66
2023-04-15T05:15:58.983Z,97223.31
2023-04-15T05:17:00.575Z,97203.56
2023-04-15T05:18:02.240Z,97208.19
2023-04-15T05:19:03.971Z,97208.22
2023-04-15T05:20:06.225Z,97215.53
2023-04-15T05:21:08.130Z,97222.28
2023-04-15T05:22:09.732Z,97209.50
2023-04-15T05:23:11.296Z,97213.88
2023-04-15T05:24:12.844Z,97201.97
2023-04-15T05:25:14.372Z,97217.97
2023-04-15T05:26:16.143Z,97215.53
2023-04-15T05:27:19.141Z,97214.44
2023-04-15T05:28:21.257Z,97218.72
2023-04-15T05:29:22.873Z,97216.34
2023-04-15T05:30:24.629Z,97206.84
2023-04-15T05:31:26.729Z,97225.25
2023-04-15T05:32:28.403Z,97221.72
2023-04-15T05:33:29.998Z,97210.81
2023-04-15T05:34:31.594Z,97214.63
2023-04-15T05:35:33.431Z,97221.69
2023-04-15T05:36:35.026Z,97222.81
2023-04-15T05:37:36.655Z,97217.97
2023-04-15T05:38:38.516Z,97225.56
2023-04-15T05:39:40.099Z,97216.63
2023-04-15T05:40:41.674Z,97221.00
2023-04-15T05:41:43.235Z,97226.69
2023-04-15T05:42:44.858Z,97223.94
2023-04-15T05:43:46.579Z,97224.19
2023-04-15T05:44:48.508Z,97227.75
2023-04-15T05:45:50.130Z,97215.81
2023-04-15T05:46:51.953Z,97228.56
2023-04-15T05:47:54.441Z,97235.88
2023-04-15T05:48:56.806Z,97233.47
2023-04-15T05:49:59.254Z,97229.13
2023-04-15T05:51:01.235Z,97230.19
2023-04-15T05:52:02.979Z,97235.31
2023-04-15T05:53:04.512Z,97235.56
2023-04-15T05:54:06.830Z,97223.91
2023-04-15T05:55:09.082Z,97240.13
2023-04-15T05:56:10.637Z,97224.44
2023-04-15T05:57:12.200Z,97245.56
2023-04-15T05:58:13.716Z,97234.72
2023-04-15T05:59:15.325Z,97243.66
2023-04-15T06:00:17.066Z,97237.97
2023-04-15T06:01:18.609Z,97228.47
2023-04-15T06:02:20.459Z,97237.38
2023-04-15T06:03:23.094Z,97239.59
2023-04-15T06:04:24.945Z,97231.00
2023-04-15T06:05:26.614Z,97230.19
2023-04-15T06:06:28.607Z,97237.84
2023-04-15T06:07:30.307Z,97224.56
2023-04-15T06:08:31.901Z,97235.44
2023-04-15T06:09:33.849Z,97228.13
2023-04-15T06:10:37.008Z,97230.84
2023-04-15T06:11:38.636Z,97236.03
2023-04-15T06:12:40.195Z,97234.41
2023-04-15T06:13:41.711Z,97235.72
2023-04-15T06:14:43.254Z,97226.81
2023-04-15T06:15:45.106Z,97244.97
2023-04-15T06:16:47.068Z,97231.44
2023-04-15T06:17:48.668Z,97241.44
2023-04-15T06:18:50.271Z,97244.44
2023-04-15T06:19:55.972Z,97232.00
2023-04-15T06:20:57.555Z,97246.34
2023-04-15T06:21:59.180Z,97244.47
2023-04-15T06:23:01.134Z,97242.06
2023-04-15T06:24:02.955Z,97245.06
2023-04-15T06:25:05.064Z,97241.25
2023-04-15T06:26:06.782Z,97243.44
2023-04-15T06:27:08.315Z,97237.22
2023-04-15T06:28:09.902Z,97244.50
2023-04-15T06:29:11.514Z,97237.31
2023-04-15T06:30:13.840Z,97250.16
2023-04-15T06:31:15.983Z,97241.03
2023-04-15T06:32:17.519Z,97241.16
2023-04-15T06:33:19.048Z,97246.09
2023-04-15T06:34:20.697Z,97248.16
2023-04-15T06:35:22.529Z,97247.19
2023-04-15T06:36:24.104Z,97238.59
2023-04-15T06:37:25.930Z,97246.78
2023-04-15T06:38:27.518Z,97244.38
2023-04-15T06:39:29.019Z,97251.66
2023-04-15T06:40:30.630Z,97243.03
2023-04-15T06:41:32.353Z,97236.25
2023-04-15T06:42:34.207Z,97244.16
2023-04-15T06:43:35.746Z,97248.28
2023-04-15T06:44:37.389Z,97241.50
2023-04-15T06:45:39.520Z,97245.88
2023-04-15T06:46:41.365Z,97243.16
2023-04-15T06:47:43.637Z,97245.63
2023-04-15T06:48:45.324Z,97239.94
2023-04-15T06:49:46.870Z,97243.50
2023-04-15T06:50:49.670Z,97229.66
2023-04-15T06:51:51.621Z,97236.44
2023-04-15T06:52:54.514Z,97243.22
2023-04-15T06:53:56.974Z,97247.59
2023-04-15T06:54:59.704Z,97254.88
2023-04-15T06:56:01.625Z,97249.72
2023-04-15T06:57:03.395Z,97253.22
2023-04-15T06:58:04.971Z,97255.41
2023-04-15T06:59:06.654Z,97252.44
2023-04-15T07:00:08.651Z,97251.34
2023-04-15T07:01:10.351Z,97245.41
2023-04-15T07:02:12.535Z,97241.63
2023-04-15T07:03:15.165Z,97238.91
2023-04-15T07:04:16.799Z,97241.09
2023-04-15T07:05:19.073Z,97252.47
2023-04-15T07:06:21.955Z,97258.16
2023-04-15T07:07:23.467Z,97254.09
2023-04-15T07:08:25.622Z,97221.31
2023-04-15T07:09:27.379Z,97245.97
2023-04-15T07:10:29.291Z,97253.03
2023-04-15T07:11:30.906Z,97250.56
2023-04-15T07:12:32.456Z,97244.91
2023-04-15T07:13:34.024Z,97243.00
2023-04-15T07:14:35.551Z,97246.53
2023-04-15T07:15:37.418Z,97234.06
2023-04-15T07:16:39.094Z,97244.34
2023-04-15T07:17:43.201Z,97255.19
2023-04-15T07:18:44.817Z,97244.38
2023-04-15T07:19:46.450Z,97253.03
2023-04-15T07:20:48.473Z,97247.06
2023-04-15T07:21:50.099Z,97241.09
2023-04-15T07:22:51.741Z,97249.22
2023-04-15T07:23:53.511Z,97245.44
2023-04-15T07:24:55.052Z,97249.50
2023-04-15T07:25:57.819Z,97255.19
2023-04-15T07:27:01.017Z,97251.91
2023-04-15T07:28:03.454Z,97243.75
2023-04-15T07:29:05.045Z,97256.78
2023-04-15T07:30:07.463Z,97261.13
2023-04-15T07:31:09.144Z,97252.47
2023-04-15T07:32:10.869Z,97241.88
2023-04-15T07:33:12.610Z,97248.69
2023-04-15T07:34:14.621Z,97257.91
2023-04-15T07:35:16.216Z,97258.16
2023-04-15T07:36:17.764Z,97256.53
2023-04-15T07:37:19.927Z,97250.84
2023-04-15T07:38:21.918Z,97253.03
2023-04-15T07:39:23.483Z,97261.44
2023-04-15T07:40:25.003Z,97252.78
2023-04-15T07:41:26.632Z,97242.47
2023-04-15T07:42:29.359Z,97260.56
2023-04-15T07:43:30.901Z,97264.94
2023-04-15T07:44:32.473Z,97266.81
2023-04-15T07:45:34.426Z,97264.91
2023-04-15T07:46:36.273Z,97265.72
2023-04-15T07:47:37.868Z,97264.94
2023-04-15T07:48:39.433Z,97256.50
2023-04-15T07:49:42.226Z,97267.88
2023-04-15T07:50:43.773Z,97262.72
2023-04-15T07:51:45.999Z,97267.06
2023-04-15T07:52:47.604Z,97269.78
2023-04-15T07:53:50.643Z,97260.06
2023-04-15T07:54:52.499Z,97257.63
2023-04-15T07:55:54.051Z,97262.75
2023-04-15T07:56:56.504Z,97263.31
2023-04-15T07:57:58.088Z,97259.22
2023-04-15T07:59:02.350Z,97265.22
2023-04-15T08:00:07.542Z,97256.00
2023-04-15T08:01:09.090Z,97261.94
2023-04-15T08:02:11.510Z,97278.75
2023-04-15T08:03:13.344Z,97282.28
2023-04-15T08:04:15.501Z,97269.81
2023-04-15T08:05:17.344Z,97278.75
2023-04-15T08:06:19.540Z,97272.50
2023-04-15T08:07:21.424Z,97283.59
2023-04-15T08:08:22.997Z,97277.34
2023-04-15T08:09:24.932Z,97264.34
2023-04-15T08:10:26.466Z,97277.91
2023-04-15T08:11:27.973Z,97277.91
2023-04-15T08:12:29.476Z,97279.00
2023-04-15T08:13:31.053Z,97280.13
2023-04-15T08:14:32.933Z,97271.16
2023-04-15T08:15:34.495Z,97272.75
2023-04-15T08:16:36.122Z,97286.59
2023-04-15T08:17:37.800Z,97275.47
2023-04-15T08:18:39.354Z,97272.47
2023-04-15T08:19:41.431Z,97284.38
2023-04-15T08:20:43.256Z,97284.38
2023-04-15T08:21:44.842Z,97284.91
2023-04-15T08:22:47.861Z,97272.72
2023-04-15T08:23:50.205Z,97287.16
2023-04-15T08:24:52.386Z,97283.06
2023-04-15T08:25:54.004Z,97278.38
2023-04-15T08:26:56.780Z,97277.22
2023-04-15T08:27:58.419Z,97270.47
2023-04-15T08:29:00.192Z,97283.75
2023-04-15T08:30:04.603Z,97285.38
2023-04-15T08:31:06.870Z,97263.44
2023-04-15T08:32:08.656Z,97291.34
2023-04-15T08:33:10.456Z,97268.59
2023-04-15T08:34:12.486Z,97281.84
2023-04-15T08:35:16.591Z,97294.34
2023-04-15T08:36:18.978Z,97278.91
2023-04-15T08:37:20.986Z,97294.63
2023-04-15T08:38:22.767Z,97291.41
2023-04-15T08:39:24.281Z,97286.00
2023-04-15T08:40:25.962Z,97280.53
2023-04-15T08:41:27.511Z,97289.19
2023-04-15T08:42:32.509Z,97286.50
2023-04-15T08:43:34.790Z,97287.03
2023-04-15T08:44:40.121Z,97295.69
2023-04-15T08:45:41.664Z,97297.78
2023-04-15T08:46:43.273Z,97295.34
2023-04-15T08:47:44.797Z,97297.50
2023-04-15T08:48:47.394Z,97296.56
2023-04-15T08:49:53.880Z,97297.66
2023-04-15T08:50:55.485Z,97287.31
2023-04-15T08:51:58.928Z,97290.03
2023-04-15T08:53:00.480Z,97295.94
2023-04-15T08:54:02.555Z,97299.22
2023-04-15T08:55:04.990Z,97301.34
2023-04-15T08:56:07.057Z,97299.72
2023-04-15T08:57:08.607Z,97302.72
2023-04-15T08:58:11.353Z,97301.41
2023-04-15T08:59:12.962Z,97312.25
2023-04-15T09:00:14.996Z,97311.66
2023-04-15T09:01:16.974Z,97308.94
2023-04-15T09:02:18.574Z,97316.50
2023-04-15T09:03:21.778Z,97310.59
2023-04-15T09:04:23.304Z,97298.75
2023-04-15T09:05:24.802Z,97301.69
2023-04-15T09:06:26.340Z,97308.44
2023-04-15T09:07:27.888Z,97307.38
2023-04-15T09:08:29.400Z,97301.41
2023-04-15T09:09:31.691Z,97312.78
2023-04-15T09:10:33.528Z,97301.44
2023-04-15T09:11:35.130Z,97313.66
2023-04-15T09:12:36.966Z,97300.41
2023-04-15T09:13:39.082Z,97304.19
2023-04-15T09:14:40.647Z,97288.22
2023-04-15T09:15:43.001Z,97307.78
2023-04-15T09:17:00.455Z,97297.28
2023-04-15T09:18:02.099Z,97296.22
2023-04-15T09:19:23.242Z,97305.41
2023-04-15T09:20:24.903Z,97273.59
2023-04-15T09:21:26.446Z,97305.28
2023-04-15T09:22:32.454Z,97305.03
2023-04-15T09:23:34.504Z,97320.75
2023-04-15T09:24:38.520Z,97317.16
2023-04-15T09:25:40.450Z,97321.84
2023-04-15T09:26:41.951Z,97306.91
2023-04-15T09:27:49.963Z,97304.16
2023-04-15T09:28:52.211Z,97318.31
2023-04-15T09:29:54.048Z,97303.13
2023-04-15T09:30:57.464Z,97315.09
2023-04-15T09:32:10.172Z,97319.16
2023-04-15T09:33:12.121Z,97318.41
2023-04-15T09:34:13.992Z,97310.50
2023-04-15T09:35:15.811Z,97314.03
2023-04-15T09:36:17.322Z,97318.91
2023-04-15T09:37:31.793Z,97319.69
2023-04-15T09:38:34.002Z,97316.88
2023-04-15T09:39:52.055Z,97322.25
2023-04-15T09:40:53.680Z,97312.50
2023-04-15T09:42:05.794Z,97319.19
2023-04-15T09:43:08.623Z,97325.16
2023-04-15T09:44:23.945Z,97328.53
2023-04-15T09:45:28.814Z,97329.19
2023-04-15T09:46:43.772Z,97310.81
2023-04-15T09:47:45.710Z,97317.88
2023-04-15T09:48:47.314Z,97331.41
2023-04-15T09:49:58.677Z,97330.84
2023-04-15T09:51:01.364Z,97326.00
2023-04-15T09:52:06.147Z,97333.84
2023-04-15T09:53:09.899Z,97318.34
2023-04-15T09:54:11.552Z,97328.66
2023-04-15T09:55:13.745Z,97338.41
2023-04-15T09:56:15.335Z,97337.25
2023-04-15T09:57:16.843Z,97335.03
2023-04-15T09:58:19.870Z,97338.00
2023-04-15T09:59:21.922Z,97339.00
2023-04-15T10:00:23.487Z,97326.25
2023-04-15T10:01:25.020Z,97331.88
2023-04-15T10:02:27.279Z,97339.53
2023-04-15T10:03:34.450Z,97322.13
2023-04-15T10:04:37.890Z,97338.94
2023-04-15T10:05:39.842Z,97334.53
2023-04-15T10:06:41.351Z,97347.00
2023-04-15T10:07:42.978Z,97331.75
2023-04-15T10:08:44.595Z,97338.53
2023-04-15T10:09:47.218Z,97341.44
2023-04-15T10:10:49.014Z,97344.91
2023-04-15T10:11:50.613Z,97347.69
2023-04-15T10:12:52.155Z,97350.38
2023-04-15T10:13:54.854Z,97351.72
2023-04-15T10:15:01.414Z,97338.69
2023-04-15T10:16:13.407Z,97335.50
2023-04-15T10:17:14.981Z,97337.72
2023-04-15T10:18:17.784Z,97339.31
2023-04-15T10:19:19.831Z,97355.84
2023-04-15T10:20:21.401Z,97350.94
2023-04-15T10:21:23.694Z,97354.50
2023-04-15T10:22:25.340Z,97359.19
2023-04-15T10:23:27.468Z,97345.84
2023-04-15T10:24:29.053Z,97356.06
2023-04-15T10:25:30.924Z,97354.41
2023-04-15T10:26:32.528Z,97347.63
2023-04-15T10:27:34.144Z,97345.78
2023-04-15T10:28:35.816Z,97354.72
2023-04-15T10:29:42.637Z,97342.97
2023-04-15T10:30:44.187Z,97342.22
2023-04-15T10:31:46.233Z,97349.00
2023-04-15T10:32:48.223Z,97351.75
2023-04-15T10:33:49.872Z,97344.50
2023-04-15T10:34:54.229Z,97349.56
2023-04-15T10:35:56.163Z,97334.09
2023-04-15T10:37:09.507Z,97354.16
2023-04-15T10:38:40.204Z,97352.06
2023-04-15T10:39:43.116Z,97338.47
2023-04-15T10:40:45.388Z,97357.91
2023-04-15T10:41:46.880Z,97343.25
2023-04-15T10:42:48.432Z,97338.38
2023-04-15T10:44:01.190Z,97344.84
2023-04-15T10:45:03.595Z,97342.16
2023-04-15T10:46:08.790Z,97334.22
2023-04-15T10:47:21.322Z,97335.66
2023-04-15T10:48:23.465Z,97337.06
2023-04-15T10:49:25.701Z,97348.16
2023-04-15T10:50:28.193Z,97326.16
2023-04-15T10:51:30.733Z,97342.22
2023-04-15T10:52:33.029Z,97340.66
2023-04-15T10:53:34.655Z,97337.09
2023-04-15T10:54:38.934Z,97330.34
2023-04-15T10:55:40.728Z,97334.63
2023-04-15T10:56:43.907Z,97336.81
2023-04-15T10:57:45.920Z,97339.00
2023-04-15T10:58:47.515Z,97339.34
2023-04-15T11:00:01.114Z,97351.78
2023-04-15T11:01:03.509Z,97351.25
2023-04-15T11:02:08.789Z,97338.22
2023-04-15T11:03:10.708Z,97350.72
2023-04-15T11:04:12.498Z,97338.53
2023-04-15T11:05:15.569Z,97345.06
2023-04-15T11:06:17.026Z,97348.94
2023-04-15T11:07:55.497Z,97351.59
2023-04-15T11:08:58.948Z,97350.53
2023-04-15T11:10:00.731Z,97354.84
2023-04-15T11:11:02.257Z,97342.38
2023-04-15T11:12:10.480Z,97347.47
2023-04-15T11:13:12.202Z,97360.25
2023-04-15T11:14:16.928Z,97333.09
2023-04-15T11:15:43.243Z,97364.63
2023-04-15T11:16:45.310Z,97357.84
2023-04-15T11:17:47.122Z,97351.31
2023-04-15T11:18:55.878Z,97344.97
2023-04-15T11:19:57.668Z,97360.47
2023-04-15T11:21:06.729Z,97353.13
2023-04-15T11:22:11.254Z,97331.94
2023-04-15T11:23:15.310Z,97355.31
2023-04-15T11:24:27.234Z,97360.19
2023-04-15T11:25:30.731Z,97357.44
2023-04-15T11:26:32.299Z,97368.81
2023-04-15T11:27:34.155Z,97362.06
2023-04-15T11:28:36.815Z,97372.09
2023-04-15T11:29:39.030Z,97371.28
2023-04-15T11:30:40.779Z,97370.16
2023-04-15T11:31:42.635Z,97377.72
2023-04-15T11:32:44.267Z,97372.59
2023-04-15T11:33:46.985Z,97364.25
2023-04-15T11:34:48.965Z,97363.22
2023-04-15T11:35:51.319Z,97357.78
2023-04-15T11:36:52.903Z,97370.53
2023-04-15T11:37:55.213Z,97370.00
2023-04-15T11:38:58.068Z,97354.31
2023-04-15T11:39:59.574Z,97375.72
2023-04-15T11:41:01.212Z,97359.19
2023-04-15T11:42:02.897Z,97371.66
2023-04-15T11:43:14.697Z,97375.44
2023-04-15T11:44:17.226Z,97366.78
2023-04-15T11:45:18.764Z,97376.53
2023-04-15T11:46:21.498Z,97370.88
2023-04-15T11:47:25.974Z,97376.78
2023-04-15T11:48:31.036Z,97369.78
2023-04-15T11:49:34.017Z,97373.56
2023-04-15T11:50:36.047Z,97370.94
2023-04-15T11:51:37.674Z,97368.19
2023-04-15T11:52:39.227Z,97374.13
2023-04-15T11:53:46.795Z,97373.84
2023-04-15T11:54:48.325Z,97370.59
2023-04-15T11:55:51.724Z,97373.78
2023-04-15T11:56:54.630Z,97384.09
2023-04-15T11:58:11.817Z,97379.00
2023-04-15T11:59:13.340Z,97374.41
2023-04-15T12:00:16.885Z,97382.28
2023-04-15T12:01:18.732Z,97377.13
2023-04-15T12:02:20.602Z,97376.56
2023-04-15T12:03:23.783Z,97378.75
2023-04-15T12:04:26.194Z,97379.84
2023-04-15T12:05:28.019Z,97365.75
2023-04-15T12:06:36.883Z,97372.25
2023-04-15T12:08:00.755Z,97379.34
2023-04-15T12:09:09.793Z,97387.47
2023-04-15T12:10:11.225Z,97381.31
2023-04-15T12:11:12.810Z,97377.22
2023-04-15T12:12:14.351Z,97382.34
2023-04-15T12:13:16.468Z,97376.28
2023-04-15T12:14:28.784Z,97386.81